createdAt,value
2023-05-23T00:01:49.935Z,50.23
2023-05-23T00:04:20.507Z,56.23
2023-05-23T00:06:47.537Z,46.17
2023-05-23T00:09:15.267Z,49.40
2023-05-23T00:11:45.792Z,51.03
2023-05-23T00:14:13.952Z,52.20
2023-05-23T00:16:45.329Z,55.50
2023-05-23T00:19:15.501Z,55.70
2023-05-23T00:21:48.911Z,52.70
2023-05-23T00:24:18.997Z,56.37
2023-05-23T00:26:47.106Z,55.07
2023-05-23T00:29:16.663Z,52.70
2023-05-23T00:31:47.217Z,55.87
2023-05-23T00:34:15.590Z,63.53
2023-05-23T00:36:43.880Z,56.00
2023-05-23T00:39:20.162Z,54.73
2023-05-23T00:41:51.806Z,53.27
2023-05-23T00:44:20.576Z,53.23
2023-05-23T00:46:54.432Z,53.57
2023-05-23T00:49:22.119Z,52.73
2023-05-23T00:51:49.918Z,53.60
2023-05-23T00:54:21.236Z,44.53
2023-05-23T00:56:48.943Z,44.17
2023-05-23T00:59:17.089Z,43.60
2023-05-23T01:01:47.422Z,39.07
2023-05-23T01:04:16.975Z,40.80
2023-05-23T01:06:47.349Z,34.50
2023-05-23T01:09:16.578Z,37.90
2023-05-23T01:11:59.016Z,42.43
2023-05-23T01:14:38.382Z,45.87
2023-05-23T01:17:14.761Z,53.63
2023-05-23T01:20:02.799Z,55.13
2023-05-23T01:22:50.898Z,71.17
2023-05-23T01:25:40.354Z,76.60
2023-05-23T01:28:12.126Z,78.93
2023-05-23T01:30:42.180Z,76.37
2023-05-23T01:33:12.128Z,84.60
2023-05-23T01:35:44.001Z,76.33
2023-05-23T01:38:11.126Z,82.90
2023-05-23T01:40:38.315Z,80.87
2023-05-23T01:43:08.037Z,79.93
2023-05-23T01:45:35.648Z,84.63
2023-05-23T01:48:04.214Z,81.33
2023-05-23T01:50:32.802Z,80.40
2023-05-23T01:53:02.782Z,83.83
2023-05-23T01:55:29.885Z,79.57
2023-05-23T01:57:58.316Z,81.63
2023-05-23T02:00:25.779Z,79.07
2023-05-23T02:02:52.965Z,76.83
2023-05-23T02:05:20.149Z,88.70
2023-05-23T02:07:47.073Z,85.43
2023-05-23T02:10:14.405Z,85.30
2023-05-23T02:12:41.324Z,79.37
2023-05-23T02:15:09.082Z,83.57
2023-05-23T02:17:36.276Z,94.73
2023-05-23T02:20:03.433Z,82.10
2023-05-23T02:22:30.503Z,82.03
2023-05-23T02:24:57.346Z,85.83
2023-05-23T02:27:24.448Z,87.97
2023-05-23T02:29:51.487Z,89.20
2023-05-23T02:32:18.518Z,72.90
2023-05-23T02:34:46.984Z,74.13
2023-05-23T02:37:15.028Z,73.03
2023-05-23T02:39:41.858Z,63.63
2023-05-23T02:42:09.041Z,81.03
2023-05-23T02:44:36.008Z,73.00
2023-05-23T02:47:02.915Z,65.50
2023-05-23T02:49:30.110Z,64.37
2023-05-23T02:51:56.942Z,75.03
2023-05-23T02:54:24.052Z,71.60
2023-05-23T02:56:52.579Z,62.60
2023-05-23T02:59:19.423Z,67.23
2023-05-23T03:01:46.546Z,72.70
2023-05-23T03:04:14.041Z,74.97
2023-05-23T03:06:42.446Z,77.27
2023-05-23T03:09:10.197Z,81.30
2023-05-23T03:11:37.849Z,79.00
2023-05-23T03:14:04.924Z,68.50
2023-05-23T03:16:32.196Z,76.60
2023-05-23T03:18:59.972Z,69.20
2023-05-23T03:21:27.242Z,81.07
2023-05-23T03:23:54.115Z,70.33
2023-05-23T03:26:22.232Z,64.40
2023-05-23T03:28:51.376Z,71.63
2023-05-23T03:31:18.512Z,68.50
2023-05-23T03:33:45.803Z,72.07
2023-05-23T03:36:12.901Z,74.53
2023-05-23T03:38:39.812Z,60.73
2023-05-23T03:41:07.214Z,75.33
2023-05-23T03:43:34.412Z,59.57
2023-05-23T03:46:01.411Z,73.47
2023-05-23T03:48:30.781Z,69.60
2023-05-23T03:50:57.703Z,70.10
2023-05-23T03:53:25.055Z,76.70
2023-05-23T03:55:54.254Z,63.50
2023-05-23T03:58:21.430Z,63.20
2023-05-23T04:00:51.683Z,65.77
2023-05-23T04:03:18.988Z,67.10
2023-05-23T04:05:46.122Z,58.27
2023-05-23T04:08:13.405Z,55.17
2023-05-23T04:10:40.312Z,61.70
2023-05-23T04:13:07.340Z,66.63
2023-05-23T04:15:34.901Z,62.90
2023-05-23T04:18:02.112Z,63.03
2023-05-23T04:20:29.267Z,68.07
2023-05-23T04:22:56.272Z,68.43
2023-05-23T04:25:24.567Z,63.67
2023-05-23T04:27:51.609Z,77.23
2023-05-23T04:30:18.670Z,80.73
2023-05-23T04:32:46.313Z,92.07
2023-05-23T04:35:14.553Z,91.90
2023-05-23T04:37:42.675Z,93.90
2023-05-23T04:40:10.306Z,85.60
2023-05-23T04:42:37.586Z,94.00
2023-05-23T04:45:05.161Z,102.07
2023-05-23T04:47:37.169Z,91.27
2023-05-23T04:50:05.777Z,94.33
2023-05-23T04:52:34.388Z,99.93
2023-05-23T04:55:02.053Z,108.60
2023-05-23T04:57:29.239Z,108.73
2023-05-23T04:59:57.381Z,98.97
2023-05-23T05:02:24.485Z,99.87
2023-05-23T05:04:51.659Z,91.67
2023-05-23T05:07:18.943Z,91.70
2023-05-23T05:09:46.052Z,103.10
2023-05-23T05:12:13.092Z,103.37
2023-05-23T05:14:40.355Z,94.53
2023-05-23T05:17:07.555Z,110.00
2023-05-23T05:19:37.775Z,109.00
2023-05-23T05:22:05.379Z,109.57
2023-05-23T05:24:33.160Z,114.10
2023-05-23T05:27:00.301Z,91.00
2023-05-23T05:29:27.411Z,97.90
2023-05-23T05:31:54.198Z,107.53
2023-05-23T05:34:21.566Z,119.40
2023-05-23T05:36:48.582Z,115.17
2023-05-23T05:39:15.759Z,135.43
2023-05-23T05:41:42.736Z,120.60
2023-05-23T05:44:10.378Z,111.23
2023-05-23T05:46:37.750Z,110.00
2023-05-23T05:49:05.062Z,95.60
2023-05-23T05:51:32.217Z,98.77
2023-05-23T05:53:59.174Z,97.07
2023-05-23T05:56:26.618Z,82.27
2023-05-23T05:58:53.886Z,70.13
2023-05-23T06:01:20.967Z,59.87
2023-05-23T06:03:48.477Z,60.67
2023-05-23T06:06:15.617Z,56.53
2023-05-23T06:08:43.396Z,50.50
2023-05-23T06:11:10.458Z,41.23
2023-05-23T06:13:37.357Z,41.70
2023-05-23T06:16:04.433Z,37.83
2023-05-23T06:18:31.336Z,34.27
2023-05-23T06:21:04.181Z,30.67
2023-05-23T06:23:31.306Z,28.10
2023-05-23T06:25:59.873Z,24.37
2023-05-23T06:28:26.852Z,20.73
2023-05-23T06:30:53.753Z,19.67
2023-05-23T06:33:20.677Z,17.23
2023-05-23T06:35:47.501Z,15.40
2023-05-23T06:38:15.819Z,15.23
2023-05-23T06:40:44.674Z,14.50
2023-05-23T06:43:11.617Z,14.83
2023-05-23T06:45:38.677Z,15.67
2023-05-23T06:48:06.177Z,14.43
2023-05-23T06:50:33.367Z,15.07
2023-05-23T06:53:00.342Z,15.47
2023-05-23T06:55:28.536Z,15.50
2023-05-23T06:57:55.333Z,15.20
2023-05-23T07:00:22.373Z,16.73
2023-05-23T07:02:49.360Z,16.00
2023-05-23T07:05:17.700Z,14.03
2023-05-23T07:07:44.651Z,14.30
2023-05-23T07:10:11.858Z,15.93
2023-05-23T07:12:39.007Z,16.33
2023-05-23T07:15:06.436Z,15.77
2023-05-23T07:17:33.496Z,14.03
2023-05-23T07:20:00.373Z,14.13
2023-05-23T07:22:27.314Z,14.30
2023-05-23T07:24:54.323Z,14.77
2023-05-23T07:27:21.380Z,12.97
2023-05-23T07:29:48.248Z,12.37
2023-05-23T07:32:15.508Z,11.87
2023-05-23T07:34:42.475Z,10.53
2023-05-23T07:37:09.461Z,11.53
2023-05-23T07:39:36.278Z,11.60
2023-05-23T07:42:03.288Z,10.47
2023-05-23T07:44:30.274Z,10.83
2023-05-23T07:46:57.354Z,10.63
2023-05-23T07:49:24.370Z,10.20
2023-05-23T07:51:51.416Z,11.23
2023-05-23T07:54:18.321Z,10.67
2023-05-23T07:56:45.471Z,11.50
2023-05-23T07:59:12.356Z,11.40
2023-05-23T08:01:39.316Z,12.50
2023-05-23T08:04:06.724Z,11.07
2023-05-23T08:06:33.878Z,11.33
2023-05-23T08:09:02.350Z,10.60
2023-05-23T08:11:30.838Z,11.17
2023-05-23T08:13:59.347Z,10.67
2023-05-23T08:16:28.497Z,12.27
2023-05-23T08:18:55.438Z,11.53
2023-05-23T08:21:24.137Z,14.33
2023-05-23T08:23:51.144Z,11.57
2023-05-23T08:26:18.136Z,13.67
2023-05-23T08:28:45.106Z,13.87
2023-05-23T08:31:12.179Z,12.93
2023-05-23T08:33:39.079Z,12.40
2023-05-23T08:36:06.235Z,12.87
2023-05-23T08:38:33.095Z,11.73
2023-05-23T08:41:02.131Z,12.60
2023-05-23T08:43:29.524Z,11.10
2023-05-23T08:45:57.513Z,12.40
2023-05-23T08:48:27.418Z,13.07
2023-05-23T08:50:54.402Z,12.63
2023-05-23T08:53:23.767Z,12.10
2023-05-23T08:55:55.955Z,11.40
2023-05-23T08:58:25.001Z,11.90
2023-05-23T09:00:53.998Z,11.70
2023-05-23T09:03:21.654Z,11.47
2023-05-23T09:05:50.368Z,11.20
2023-05-23T09:08:17.452Z,9.07
2023-05-23T09:10:44.300Z,11.17
2023-05-23T09:13:11.265Z,9.00
2023-05-23T09:15:38.882Z,7.50
2023-05-23T09:18:06.060Z,7.00
2023-05-23T09:20:33.455Z,5.57
2023-05-23T09:23:02.939Z,7.17
2023-05-23T09:25:31.201Z,7.50
2023-05-23T09:28:00.288Z,5.63
2023-05-23T09:30:27.187Z,6.73
2023-05-23T09:33:02.037Z,4.27
2023-05-23T09:35:31.195Z,10.17
2023-05-23T09:38:01.953Z,6.37
2023-05-23T09:40:33.258Z,6.73
2023-05-23T09:43:04.641Z,9.23
2023-05-23T09:45:32.700Z,4.07
2023-05-23T09:48:00.137Z,10.50
2023-05-23T09:50:33.809Z,17.83
2023-05-23T09:53:01.679Z,8.33
2023-05-23T09:55:28.798Z,13.37
2023-05-23T09:57:58.690Z,10.67
2023-05-23T10:00:26.368Z,10.93
2023-05-23T10:03:02.086Z,11.57
2023-05-23T10:05:44.485Z,10.13
2023-05-23T10:08:19.417Z,12.17
2023-05-23T10:11:11.917Z,8.23
2023-05-23T10:13:43.721Z,7.90
2023-05-23T10:16:23.746Z,12.03
2023-05-23T10:18:58.383Z,12.90
2023-05-23T10:21:33.735Z,12.80
2023-05-23T10:24:01.805Z,10.37
2023-05-23T10:26:28.982Z,14.60
2023-05-23T10:28:57.712Z,14.83
2023-05-23T10:31:25.417Z,11.30
2023-05-23T10:34:17.875Z,16.50
2023-05-23T10:36:58.058Z,14.20
2023-05-23T10:39:50.165Z,12.83
2023-05-23T10:42:30.764Z,10.53
2023-05-23T10:45:23.736Z,12.30
2023-05-23T10:47:53.016Z,9.33
2023-05-23T10:50:37.531Z,13.67
2023-05-23T10:53:09.776Z,9.60
2023-05-23T10:55:37.522Z,11.23
2023-05-23T10:58:21.849Z,14.97
2023-05-23T11:00:57.069Z,13.17
2023-05-23T11:03:46.122Z,16.63
2023-05-23T11:06:45.041Z,13.73
2023-05-23T11:09:21.086Z,14.97
2023-05-23T11:11:58.242Z,11.83
2023-05-23T11:14:38.323Z,13.33
2023-05-23T11:17:14.161Z,12.53
2023-05-23T11:19:57.134Z,9.77
2023-05-23T11:22:28.110Z,10.97
2023-05-23T11:24:56.185Z,13.33
2023-05-23T11:27:28.963Z,15.30
2023-05-23T11:30:09.867Z,12.67
2023-05-23T11:32:37.763Z,11.10
2023-05-23T11:35:07.181Z,10.90
2023-05-23T11:37:34.805Z,12.40
2023-05-23T11:40:27.483Z,9.23
2023-05-23T11:42:58.004Z,13.03
2023-05-23T11:45:26.073Z,10.97
2023-05-23T11:47:53.384Z,8.77
2023-05-23T11:50:24.594Z,11.30
2023-05-23T11:52:52.176Z,9.93
2023-05-23T11:55:23.577Z,8.47
2023-05-23T11:57:52.085Z,9.87
2023-05-23T12:00:19.890Z,7.77
2023-05-23T12:02:49.966Z,8.40
2023-05-23T12:05:17.175Z,12.43
2023-05-23T12:07:49.771Z,10.77
2023-05-23T12:10:18.127Z,9.57
2023-05-23T12:12:45.801Z,7.43
2023-05-23T12:15:13.813Z,10.53
2023-05-23T12:17:47.346Z,7.57
2023-05-23T12:20:14.487Z,7.87
2023-05-23T12:22:42.575Z,9.60
2023-05-23T12:25:11.434Z,8.03
2023-05-23T12:27:42.018Z,11.60
2023-05-23T12:30:16.494Z,14.00
2023-05-23T12:32:45.514Z,12.13
2023-05-23T12:35:14.184Z,10.90
2023-05-23T12:37:43.902Z,9.50
2023-05-23T12:40:19.911Z,9.13
2023-05-23T12:42:58.731Z,13.23
2023-05-23T12:45:33.188Z,13.50
2023-05-23T12:48:01.430Z,10.83
2023-05-23T12:50:28.568Z,10.03
2023-05-23T12:52:56.445Z,9.43
2023-05-23T12:55:23.359Z,11.43
2023-05-23T12:57:50.489Z,10.23
2023-05-23T13:00:18.505Z,11.33
2023-05-23T13:02:45.931Z,11.10
2023-05-23T13:05:13.052Z,11.67
2023-05-23T13:07:40.092Z,12.80
2023-05-23T13:10:07.578Z,10.17
2023-05-23T13:12:35.029Z,11.50
2023-05-23T13:15:01.960Z,10.63
2023-05-23T13:17:28.877Z,15.53
2023-05-23T13:19:55.787Z,11.40
2023-05-23T13:22:22.692Z,10.43
2023-05-23T13:24:49.561Z,11.67
2023-05-23T13:27:17.001Z,12.07
2023-05-23T13:29:45.421Z,9.60
2023-05-23T13:32:12.353Z,9.37
2023-05-23T13:34:39.806Z,10.03
2023-05-23T13:37:06.628Z,8.00
2023-05-23T13:39:33.592Z,9.87
2023-05-23T13:42:00.829Z,10.93
2023-05-23T13:44:29.341Z,11.57
2023-05-23T13:46:58.888Z,12.67
2023-05-23T13:49:25.907Z,10.20
2023-05-23T13:51:52.770Z,12.20
2023-05-23T13:54:19.828Z,15.47
2023-05-23T13:56:46.717Z,10.23
2023-05-23T13:59:14.130Z,12.47
2023-05-23T14:01:41.534Z,11.23
2023-05-23T14:04:08.554Z,9.73
2023-05-23T14:06:36.904Z,13.27
2023-05-23T14:09:04.113Z,15.07
2023-05-23T14:11:31.189Z,10.67
2023-05-23T14:13:58.123Z,12.73
2023-05-23T14:16:25.116Z,13.97
2023-05-23T14:18:52.578Z,10.50
2023-05-23T14:21:19.493Z,11.93
2023-05-23T14:23:46.465Z,15.07
2023-05-23T14:26:15.716Z,11.83
2023-05-23T14:28:42.710Z,10.77
2023-05-23T14:31:09.710Z,10.60
2023-05-23T14:33:36.534Z,12.63
2023-05-23T14:36:04.209Z,13.83
2023-05-23T14:38:31.051Z,11.53
2023-05-23T14:40:59.370Z,16.90
2023-05-23T14:43:26.353Z,13.10
2023-05-23T14:45:53.227Z,13.07
2023-05-23T14:48:20.198Z,14.83
2023-05-23T14:50:47.029Z,16.20
2023-05-23T14:53:13.928Z,14.97
2023-05-23T14:55:41.507Z,17.67
2023-05-23T14:58:08.750Z,14.57
2023-05-23T15:00:35.584Z,16.33
2023-05-23T15:03:02.549Z,15.00
2023-05-23T15:05:29.442Z,13.17
2023-05-23T15:07:56.714Z,18.13
2023-05-23T15:10:23.629Z,15.27
2023-05-23T15:12:50.733Z,16.97
2023-05-23T15:15:23.294Z,15.60
2023-05-23T15:17:51.411Z,14.10
2023-05-23T15:20:18.778Z,15.13
2023-05-23T15:22:45.954Z,12.03
2023-05-23T15:25:12.834Z,13.90
2023-05-23T15:27:39.611Z,13.83
2023-05-23T15:30:07.280Z,12.43
2023-05-23T15:32:34.320Z,15.60
2023-05-23T15:35:01.245Z,15.93
2023-05-23T15:37:30.006Z,10.93
2023-05-23T15:39:56.996Z,15.27
2023-05-23T15:42:23.920Z,13.47
2023-05-23T15:44:51.386Z,14.60
2023-05-23T15:47:19.079Z,16.00
2023-05-23T15:49:46.056Z,17.20
2023-05-23T15:52:13.280Z,22.23
2023-05-23T15:54:40.156Z,15.07
2023-05-23T15:57:07.140Z,18.13
2023-05-23T15:59:36.488Z,17.70
2023-05-23T16:02:07.049Z,16.97
2023-05-23T16:04:36.347Z,15.80
2023-05-23T16:07:03.988Z,12.93
2023-05-23T16:09:30.896Z,12.83
2023-05-23T16:11:58.679Z,14.57
2023-05-23T16:14:25.966Z,14.30
2023-05-23T16:16:52.883Z,12.90
2023-05-23T16:19:23.010Z,19.00
2023-05-23T16:21:50.821Z,14.90
2023-05-23T16:24:18.601Z,20.73
2023-05-23T16:26:45.586Z,15.50
2023-05-23T16:29:12.623Z,11.73
2023-05-23T16:31:39.678Z,22.00
2023-05-23T16:34:06.693Z,17.40
2023-05-23T16:36:33.695Z,12.90
2023-05-23T16:39:00.573Z,18.03
2023-05-23T16:41:28.569Z,13.53
2023-05-23T16:43:55.950Z,16.73
2023-05-23T16:46:23.128Z,17.07
2023-05-23T16:48:50.456Z,12.87
2023-05-23T16:51:17.537Z,16.37
2023-05-23T16:53:44.335Z,15.60
2023-05-23T16:56:11.255Z,15.70
2023-05-23T16:58:39.066Z,11.80
2023-05-23T17:01:07.226Z,19.77
2023-05-23T17:03:34.618Z,14.43
2023-05-23T17:06:01.668Z,16.97
2023-05-23T17:08:28.674Z,18.20
2023-05-23T17:10:55.556Z,16.73
2023-05-23T17:13:22.333Z,16.77
2023-05-23T17:15:51.588Z,16.73
2023-05-23T17:18:18.987Z,18.93
2023-05-23T17:20:46.070Z,16.47
2023-05-23T17:23:13.151Z,15.77
2023-05-23T17:25:40.517Z,19.93
2023-05-23T17:28:07.955Z,22.53
2023-05-23T17:30:35.146Z,14.23
2023-05-23T17:33:02.301Z,18.57
2023-05-23T17:35:29.312Z,19.53
2023-05-23T17:37:58.487Z,19.37
2023-05-23T17:40:25.839Z,16.40
2023-05-23T17:42:53.403Z,14.03
2023-05-23T17:45:20.230Z,20.50
2023-05-23T17:47:47.437Z,15.50
2023-05-23T17:50:14.478Z,16.00
2023-05-23T17:52:41.999Z,13.50
2023-05-23T17:55:09.582Z,18.63
2023-05-23T17:57:36.808Z,19.93
2023-05-23T18:00:04.294Z,19.97
2023-05-23T18:02:31.680Z,15.97
2023-05-23T18:04:59.401Z,20.60
2023-05-23T18:07:26.645Z,18.70
2023-05-23T18:09:53.580Z,15.90
2023-05-23T18:12:21.298Z,17.00
2023-05-23T18:14:48.471Z,18.90
2023-05-23T18:17:17.624Z,22.60
2023-05-23T18:19:45.921Z,18.27
2023-05-23T18:22:14.554Z,19.60
2023-05-23T18:24:41.955Z,18.23
2023-05-23T18:27:09.116Z,14.80
2023-05-23T18:29:36.562Z,19.87
2023-05-23T18:32:04.017Z,20.20
2023-05-23T18:34:30.989Z,14.43
2023-05-23T18:36:57.986Z,21.20
2023-05-23T18:39:25.150Z,18.40
2023-05-23T18:41:52.334Z,17.73
2023-05-23T18:44:20.855Z,18.77
2023-05-23T18:46:48.325Z,19.70
2023-05-23T18:49:15.386Z,15.20
2023-05-23T18:51:43.099Z,19.27
2023-05-23T18:54:10.222Z,17.67
2023-05-23T18:56:37.399Z,19.80
2023-05-23T18:59:04.542Z,24.23
2023-05-23T19:01:31.414Z,14.30
2023-05-23T19:03:58.496Z,17.40
2023-05-23T19:06:25.895Z,20.57
2023-05-23T19:08:52.901Z,20.20
2023-05-23T19:11:19.749Z,21.63
2023-05-23T19:13:46.797Z,23.80
2023-05-23T19:16:13.826Z,18.40
2023-05-23T19:18:40.645Z,16.90
2023-05-23T19:21:07.637Z,18.77
2023-05-23T19:23:34.700Z,20.93
2023-05-23T19:26:02.347Z,18.67
2023-05-23T19:28:29.188Z,14.73
2023-05-23T19:30:56.512Z,19.90
2023-05-23T19:33:23.501Z,18.47
2023-05-23T19:35:50.428Z,17.73
2023-05-23T19:38:17.483Z,18.80
2023-05-23T19:40:47.341Z,17.00
2023-05-23T19:43:14.217Z,16.50
2023-05-23T19:45:41.320Z,24.07
2023-05-23T19:48:08.351Z,21.47
2023-05-23T19:50:35.292Z,18.50
2023-05-23T19:53:02.315Z,19.27
2023-05-23T19:55:29.130Z,22.73
2023-05-23T19:57:56.112Z,17.33
2023-05-23T20:00:23.512Z,21.17
2023-05-23T20:02:50.831Z,19.37
2023-05-23T20:05:17.974Z,23.37
2023-05-23T20:07:44.887Z,19.17
2023-05-23T20:10:12.129Z,22.73
2023-05-23T20:12:39.170Z,20.37
2023-05-23T20:15:06.783Z,25.17
2023-05-23T20:17:33.729Z,23.63
2023-05-23T20:20:01.074Z,28.77
2023-05-23T20:22:28.435Z,26.73
2023-05-23T20:24:55.827Z,28.90
2023-05-23T20:27:22.670Z,27.43
2023-05-23T20:29:50.670Z,23.00
2023-05-23T20:32:17.785Z,21.90
2023-05-23T20:34:44.812Z,20.87
2023-05-23T20:37:13.987Z,25.00
2023-05-23T20:39:44.518Z,28.23
2023-05-23T20:42:11.764Z,24.50
2023-05-23T20:44:38.920Z,28.73
2023-05-23T20:47:07.011Z,21.17
2023-05-23T20:49:35.008Z,33.00
2023-05-23T20:52:02.514Z,22.93
2023-05-23T20:54:29.605Z,28.60
2023-05-23T20:56:56.780Z,27.40
2023-05-23T20:59:26.487Z,26.60
2023-05-23T21:01:53.832Z,27.03
2023-05-23T21:04:20.816Z,29.23
2023-05-23T21:06:47.998Z,24.30
2023-05-23T21:09:16.672Z,24.77
2023-05-23T21:11:44.810Z,27.87
2023-05-23T21:14:11.792Z,23.97
2023-05-23T21:16:38.657Z,29.23
2023-05-23T21:19:05.600Z,22.00
2023-05-23T21:21:32.496Z,24.57
2023-05-23T21:23:59.307Z,26.60
2023-05-23T21:26:26.168Z,24.13
2023-05-23T21:28:53.079Z,24.97
2023-05-23T21:31:29.803Z,25.17
2023-05-23T21:34:18.453Z,33.33
2023-05-23T21:36:49.075Z,24.93
2023-05-23T21:39:15.987Z,23.27
2023-05-23T21:41:42.870Z,27.97
2023-05-23T21:44:09.987Z,28.00
2023-05-23T21:46:37.555Z,28.10
2023-05-23T21:49:04.476Z,23.63
2023-05-23T21:51:31.388Z,26.80
2023-05-23T21:53:58.510Z,23.80
2023-05-23T21:56:26.590Z,21.60
2023-05-23T21:58:53.488Z,28.70
2023-05-23T22:01:20.511Z,24.47
2023-05-23T22:03:47.495Z,30.37
2023-05-23T22:06:14.685Z,25.70
2023-05-23T22:08:42.367Z,29.37
2023-05-23T22:11:10.555Z,30.03
2023-05-23T22:13:37.452Z,30.50
2023-05-23T22:16:12.996Z,23.90
2023-05-23T22:18:51.403Z,28.57
2023-05-23T22:21:21.413Z,30.03
2023-05-23T22:23:48.360Z,24.70
2023-05-23T22:26:15.426Z,25.70
2023-05-23T22:28:42.690Z,38.80
2023-05-23T22:31:12.053Z,31.23
2023-05-23T22:33:41.285Z,28.93
2023-05-23T22:36:09.916Z,36.87
2023-05-23T22:38:38.046Z,29.30
2023-05-23T22:41:05.505Z,32.77
2023-05-23T22:43:32.565Z,25.70
2023-05-23T22:45:59.544Z,23.30
2023-05-23T22:48:26.712Z,31.83
2023-05-23T22:50:57.392Z,27.63
2023-05-23T22:53:24.416Z,30.03
2023-05-23T22:55:51.351Z,28.83
2023-05-23T22:58:20.817Z,26.93
2023-05-23T23:00:47.990Z,34.60
2023-05-23T23:03:15.641Z,29.63
2023-05-23T23:05:42.658Z,21.27
2023-05-23T23:08:09.583Z,27.93
2023-05-23T23:10:36.443Z,32.33
2023-05-23T23:13:03.446Z,33.27
2023-05-23T23:15:30.501Z,27.20
2023-05-23T23:17:57.770Z,27.40
2023-05-23T23:20:25.123Z,28.80
2023-05-23T23:22:52.346Z,25.97
2023-05-23T23:25:19.447Z,35.03
2023-05-23T23:27:46.328Z,31.67
2023-05-23T23:30:13.413Z,27.20
2023-05-23T23:32:40.333Z,32.20
2023-05-23T23:35:07.666Z,31.10
2023-05-23T23:37:34.465Z,23.40
2023-05-23T23:40:01.456Z,29.70
2023-05-23T23:42:28.525Z,27.57
2023-05-23T23:44:55.442Z,28.17
2023-05-23T23:47:22.360Z,28.87
2023-05-23T23:49:49.400Z,30.03
2023-05-23T23:52:16.404Z,26.13
2023-05-23T23:54:43.426Z,29.27
2023-05-23T23:57:14.264Z,27.80
2023-05-23T23:59:41.877Z,26.93
